createdAt,value
2019-04-04T15:46:47.778Z,7.47
2019-04-04T15:51:51.897Z,9.10
2019-04-04T15:56:56.010Z,9.73
2019-04-04T16:02:00.002Z,9.48
2019-04-04T16:07:05.594Z,8.90
2019-04-04T16:12:09.386Z,9.08
2019-04-04T16:17:13.398Z,9.37
2019-04-04T16:22:17.413Z,8.67
2019-04-04T16:27:21.186Z,7.83
2019-04-04T16:32:25.011Z,9.07
2019-04-04T16:37:28.762Z,8.07
2019-04-04T16:42:32.513Z,8.70
2019-04-04T16:47:36.538Z,10.17
2019-04-04T16:52:40.310Z,8.10
2019-04-04T16:57:44.175Z,9.80
2019-04-04T17:02:48.487Z,9.33
2019-04-04T17:07:52.244Z,9.00
2019-04-04T17:12:56.806Z,9.60
2019-04-04T17:18:00.926Z,8.65
2019-04-04T17:23:04.722Z,9.35
2019-04-04T17:28:08.969Z,7.83
2019-04-04T17:33:13.725Z,8.35
2019-04-04T17:38:17.550Z,7.72
2019-04-04T17:43:21.411Z,6.83
2019-04-04T17:48:25.775Z,6.65
2019-04-04T17:53:29.647Z,7.80
2019-04-04T17:58:33.953Z,8.33
2019-04-04T18:03:37.971Z,7.97
2019-04-04T18:08:41.893Z,7.37
2019-04-04T18:13:45.975Z,9.50
2019-04-04T18:18:50.321Z,8.30
2019-04-04T18:23:54.148Z,8.73
2019-04-04T18:28:57.903Z,9.07
2019-04-04T18:34:02.055Z,10.00
2019-04-04T18:39:07.817Z,10.35
2019-04-04T18:44:11.661Z,9.43
2019-04-04T18:49:15.661Z,9.03
2019-04-04T18:54:19.855Z,9.70
2019-04-04T18:59:24.607Z,10.10
2019-04-04T19:04:28.655Z,11.90
2019-04-04T19:09:32.834Z,10.88
2019-04-04T19:14:36.832Z,10.90
2019-04-04T19:19:40.911Z,10.50
2019-04-04T19:24:45.054Z,11.95
2019-04-04T19:29:48.783Z,11.25
2019-04-04T19:34:52.558Z,11.43
2019-04-04T19:39:57.816Z,12.33
2019-04-04T19:45:01.590Z,12.37
2019-04-04T19:50:05.760Z,12.47
2019-04-04T19:55:09.545Z,13.25
2019-04-04T20:00:14.396Z,12.33
2019-04-04T20:05:18.405Z,12.33
2019-04-04T20:10:22.123Z,11.12
2019-04-04T20:15:26.050Z,10.43
2019-04-04T20:20:29.834Z,9.47
2019-04-04T20:25:33.646Z,8.03
2019-04-04T20:30:38.173Z,9.67
2019-04-04T20:35:41.922Z,9.35
2019-04-04T20:40:46.218Z,8.93
2019-04-04T20:45:50.045Z,8.78
2019-04-04T20:50:53.871Z,9.60
2019-04-04T20:55:57.624Z,9.67
2019-04-04T21:01:01.813Z,11.57
2019-04-04T21:06:05.861Z,11.63
2019-04-04T21:11:10.284Z,11.12
2019-04-04T21:16:14.406Z,11.08
2019-04-04T21:21:18.267Z,9.75
2019-04-04T21:26:22.055Z,10.60
2019-04-04T21:31:25.827Z,11.20
2019-04-04T21:36:29.689Z,11.70
2019-04-04T21:41:33.481Z,10.83
2019-04-04T21:46:37.322Z,10.80
2019-04-04T21:51:41.202Z,10.60
2019-04-04T21:56:45.285Z,11.27
2019-04-04T22:01:49.053Z,12.23
2019-04-04T22:06:53.224Z,11.07
2019-04-04T22:11:57.257Z,11.25
2019-04-04T22:17:01.104Z,11.05
2019-04-04T22:22:04.880Z,10.50
2019-04-04T22:27:08.764Z,11.13
2019-04-04T22:32:13.067Z,10.90
2019-04-04T22:37:16.912Z,12.37
2019-04-04T22:42:20.672Z,10.27
2019-04-04T22:47:24.742Z,11.80
2019-04-04T22:52:29.120Z,10.60
2019-04-04T22:57:33.232Z,12.33
2019-04-04T23:02:37.066Z,10.15
2019-04-04T23:07:41.224Z,12.57
2019-04-04T23:12:45.745Z,10.85
2019-04-04T23:17:49.634Z,11.55
2019-04-04T23:22:53.931Z,10.13
2019-04-04T23:27:57.848Z,9.40
2019-04-04T23:33:01.730Z,9.90
2019-04-04T23:38:05.652Z,10.37
2019-04-04T23:43:09.848Z,11.53
2019-04-04T23:48:13.602Z,9.30
2019-04-04T23:53:17.421Z,10.33
2019-04-04T23:58:21.660Z,10.93
